createdAt,value
2018-04-11T00:00:12.248Z,85.47
2018-04-11T00:02:40.514Z,87.72
2018-04-11T00:05:08.799Z,86.75
2018-04-11T00:07:37.084Z,85.86
2018-04-11T00:10:05.656Z,86.24
2018-04-11T00:12:33.923Z,87.81
2018-04-11T00:15:02.214Z,88.72
2018-04-11T00:17:30.527Z,88.40
2018-04-11T00:19:58.839Z,88.28
2018-04-11T00:22:27.157Z,88.10
2018-04-11T00:24:55.439Z,87.44
2018-04-11T00:27:23.775Z,89.31
2018-04-11T00:29:52.838Z,88.58
2018-04-11T00:32:21.128Z,88.18
2018-04-11T00:34:50.187Z,89.37
2018-04-11T00:37:18.464Z,88.47
2018-04-11T00:39:46.767Z,87.50
2018-04-11T00:42:15.035Z,87.95
2018-04-11T00:44:43.306Z,89.25
2018-04-11T00:47:11.599Z,90.22
2018-04-11T00:49:39.884Z,89.71
2018-04-11T00:52:08.950Z,88.84
2018-04-11T00:54:37.212Z,89.29
2018-04-11T00:57:05.512Z,89.78
2018-04-11T00:59:33.780Z,90.33
2018-04-11T01:02:02.082Z,90.36
2018-04-11T01:04:31.129Z,89.76
2018-04-11T01:06:59.433Z,89.66
2018-04-11T01:09:27.697Z,91.00
2018-04-11T01:11:56.012Z,90.84
2018-04-11T01:14:25.054Z,90.35
2018-04-11T01:16:53.399Z,89.88
2018-04-11T01:19:21.679Z,90.71
2018-04-11T01:21:49.972Z,93.46
2018-04-11T01:24:18.242Z,93.29
2018-04-11T01:26:46.567Z,92.71
2018-04-11T01:29:14.807Z,91.85
2018-04-11T01:31:43.092Z,91.49
2018-04-11T01:34:11.447Z,91.11
2018-04-11T01:36:39.800Z,90.64
2018-04-11T01:39:09.022Z,90.65
2018-04-11T01:41:37.396Z,91.57
2018-04-11T01:44:05.734Z,91.41
2018-04-11T01:46:34.878Z,93.23
2018-04-11T01:49:03.222Z,93.56
2018-04-11T01:51:32.375Z,93.23
2018-04-11T01:54:00.671Z,91.93
2018-04-11T01:56:28.972Z,91.07
2018-04-11T01:58:57.323Z,90.11
2018-04-11T02:01:25.592Z,88.54
2018-04-11T02:03:53.879Z,87.65
2018-04-11T02:06:22.162Z,87.85
2018-04-11T02:08:50.447Z,88.50
2018-04-11T02:11:18.725Z,88.56
2018-04-11T02:13:47.021Z,92.88
2018-04-11T02:16:15.314Z,94.15
2018-04-11T02:18:43.615Z,94.05
2018-04-11T02:21:11.894Z,94.63
2018-04-11T02:23:40.182Z,95.10
2018-04-11T02:26:08.471Z,96.37
2018-04-11T02:28:36.762Z,97.09
2018-04-11T02:31:05.815Z,98.41
2018-04-11T02:33:34.098Z,98.28
2018-04-11T02:36:02.403Z,97.91
2018-04-11T02:38:30.694Z,98.10
2018-04-11T02:40:59.736Z,98.36
2018-04-11T02:43:28.021Z,97.26
2018-04-11T02:45:56.311Z,96.07
2018-04-11T02:48:24.603Z,95.41
2018-04-11T02:50:52.939Z,94.46
2018-04-11T02:53:22.321Z,94.76
2018-04-11T02:55:50.610Z,94.93
2018-04-11T02:58:18.888Z,94.03
2018-04-11T03:00:47.175Z,94.07
2018-04-11T03:03:15.451Z,93.27
2018-04-11T03:05:43.756Z,93.86
2018-04-11T03:08:12.030Z,94.85
2018-04-11T03:10:41.115Z,94.90
2018-04-11T03:13:10.147Z,94.30
2018-04-11T03:15:39.198Z,93.84
2018-04-11T03:18:07.468Z,94.42
2018-04-11T03:20:35.761Z,94.97
2018-04-11T03:23:04.024Z,94.97
2018-04-11T03:25:32.325Z,96.84
2018-04-11T03:28:00.607Z,99.62
2018-04-11T03:30:28.956Z,100.00
2018-04-11T03:32:57.223Z,98.76
2018-04-11T03:35:25.566Z,97.29
2018-04-11T03:37:53.871Z,96.95
2018-04-11T03:40:22.151Z,97.06
2018-04-11T03:42:50.432Z,96.19
2018-04-11T03:45:18.760Z,95.37
2018-04-11T03:47:47.806Z,94.72
2018-04-11T03:50:16.095Z,93.73
2018-04-11T03:52:44.376Z,93.43
2018-04-11T03:55:12.671Z,93.28
2018-04-11T03:57:40.968Z,93.74
2018-04-11T04:00:09.231Z,93.60
2018-04-11T04:02:38.298Z,93.54
2018-04-11T04:05:06.582Z,93.32
2018-04-11T04:07:34.945Z,93.14
2018-04-11T04:10:03.213Z,92.74
2018-04-11T04:12:32.270Z,93.10
2018-04-11T04:15:18.217Z,92.74
2018-04-11T04:18:04.479Z,92.46
2018-04-11T04:20:37.675Z,91.94
2018-04-11T04:23:05.975Z,91.50
2018-04-11T04:25:34.281Z,91.94
2018-04-11T04:28:03.475Z,91.60
2018-04-11T04:30:32.525Z,91.75
2018-04-11T04:33:00.861Z,91.49
2018-04-11T04:35:29.944Z,92.32
2018-04-11T04:37:59.085Z,92.48
2018-04-11T04:40:27.442Z,91.87
2018-04-11T04:42:55.831Z,91.40
2018-04-11T04:45:24.201Z,91.39
2018-04-11T04:47:52.626Z,91.20
2018-04-11T04:50:21.007Z,91.03
2018-04-11T04:52:49.361Z,91.76
2018-04-11T04:55:19.257Z,91.55
2018-04-11T04:57:47.625Z,91.14
2018-04-11T05:00:15.979Z,91.11
2018-04-11T05:02:45.137Z,90.95
2018-04-11T05:05:13.480Z,91.59
2018-04-11T05:07:41.867Z,91.72
2018-04-11T05:10:10.219Z,91.84
2018-04-11T05:12:38.590Z,91.69
2018-04-11T05:15:07.667Z,91.42
2018-04-11T05:17:35.949Z,92.00
2018-04-11T05:20:04.263Z,91.35
2018-04-11T05:22:32.540Z,91.31
2018-04-11T05:25:00.892Z,90.94
2018-04-11T05:27:29.162Z,91.61
2018-04-11T05:29:57.447Z,92.10
2018-04-11T05:32:26.483Z,91.35
2018-04-11T05:34:54.767Z,91.04
2018-04-11T05:37:23.041Z,90.62
2018-04-11T05:39:51.323Z,90.34
2018-04-11T05:42:19.595Z,90.97
2018-04-11T05:44:47.897Z,90.95
2018-04-11T05:47:16.164Z,90.59
2018-04-11T05:49:45.252Z,90.45
2018-04-11T05:52:13.572Z,90.22
2018-04-11T05:54:42.622Z,89.90
2018-04-11T05:57:10.903Z,89.86
2018-04-11T05:59:39.191Z,89.36
2018-04-11T06:02:07.462Z,89.49
2018-04-11T06:04:35.749Z,90.05
2018-04-11T06:07:04.039Z,89.91
2018-04-11T06:09:32.347Z,90.08
2018-04-11T06:12:00.689Z,90.50
2018-04-11T06:14:28.994Z,90.11
2018-04-11T06:16:57.310Z,89.79
2018-04-11T06:19:25.598Z,89.69
2018-04-11T06:21:53.887Z,90.04
2018-04-11T06:24:22.157Z,89.68
2018-04-11T06:26:50.493Z,89.46
2018-04-11T06:29:18.847Z,89.45
2018-04-11T06:31:47.919Z,89.59
2018-04-11T06:34:16.186Z,90.11
2018-04-11T06:36:44.499Z,90.28
2018-04-11T06:39:13.536Z,90.16
2018-04-11T06:41:41.823Z,90.33
2018-04-11T06:44:10.086Z,90.30
2018-04-11T06:46:38.378Z,93.01
2018-04-11T06:49:06.654Z,93.40
2018-04-11T06:51:34.967Z,93.74
2018-04-11T06:54:04.011Z,93.94
2018-04-11T06:56:32.315Z,93.79
2018-04-11T06:59:00.581Z,95.02
2018-04-11T07:01:28.925Z,95.85
2018-04-11T07:03:57.156Z,96.96
2018-04-11T07:06:25.456Z,96.65
2018-04-11T07:08:54.498Z,95.73
2018-04-11T07:11:22.782Z,95.45
2018-04-11T07:13:51.047Z,94.92
2018-04-11T07:16:19.336Z,94.25
2018-04-11T07:18:47.604Z,92.82
2018-04-11T07:21:15.903Z,93.56
2018-04-11T07:23:44.199Z,93.18
2018-04-11T07:26:13.241Z,93.08
2018-04-11T07:28:41.523Z,92.45
2018-04-11T07:31:09.799Z,92.57
2018-04-11T07:33:38.086Z,92.82
2018-04-11T07:36:07.187Z,91.70
2018-04-11T07:38:36.275Z,91.67
2018-04-11T07:41:04.573Z,92.98
2018-04-11T07:43:32.861Z,93.30
2018-04-11T07:46:01.974Z,92.38
2018-04-11T07:48:30.212Z,92.51
2018-04-11T07:50:58.510Z,91.73
2018-04-11T07:53:27.565Z,93.57
2018-04-11T07:55:55.852Z,93.24
2018-04-11T07:58:24.135Z,94.26
2018-04-11T08:00:52.413Z,93.72
2018-04-11T08:03:20.784Z,94.93
2018-04-11T08:05:49.012Z,95.81
2018-04-11T08:08:17.296Z,95.08
2018-04-11T08:10:45.560Z,93.61
2018-04-11T08:13:13.836Z,94.14
2018-04-11T08:15:42.114Z,93.29
2018-04-11T08:18:10.442Z,93.02
2018-04-11T08:20:38.663Z,92.46
2018-04-11T08:23:06.945Z,93.05
2018-04-11T08:25:35.299Z,93.02
2018-04-11T08:28:04.343Z,92.65
2018-04-11T08:30:33.955Z,91.76
2018-04-11T08:33:02.227Z,92.34
2018-04-11T08:35:30.520Z,93.08
2018-04-11T08:37:58.802Z,92.96
2018-04-11T08:40:27.084Z,92.84
2018-04-11T08:42:55.343Z,92.85
2018-04-11T08:45:23.648Z,93.84
2018-04-11T08:47:51.917Z,93.82
2018-04-11T08:50:20.270Z,93.40
2018-04-11T08:52:48.565Z,93.36
2018-04-11T08:55:16.839Z,93.64
2018-04-11T08:57:45.116Z,92.94
2018-04-11T09:00:13.412Z,92.95
2018-04-11T09:02:42.474Z,93.22
2018-04-11T09:05:10.755Z,93.72
2018-04-11T09:07:39.039Z,92.66
2018-04-11T09:10:07.353Z,93.01
2018-04-11T09:12:36.406Z,92.83
2018-04-11T09:15:04.695Z,93.34
2018-04-11T09:17:32.972Z,92.12
2018-04-11T09:20:01.256Z,91.90
2018-04-11T09:22:29.570Z,91.79
2018-04-11T09:24:57.876Z,91.04
2018-04-11T09:27:26.144Z,90.48
2018-04-11T09:29:54.437Z,91.50
2018-04-11T09:32:22.711Z,90.19
2018-04-11T09:34:51.045Z,90.81
2018-04-11T09:37:19.365Z,91.08
2018-04-11T09:39:47.648Z,90.58
2018-04-11T09:42:15.944Z,91.65
2018-04-11T09:44:44.215Z,90.71
2018-04-11T09:47:12.507Z,90.55
2018-04-11T09:49:41.538Z,88.58
2018-04-11T09:52:09.822Z,87.63
2018-04-11T09:54:38.079Z,87.27
2018-04-11T09:57:06.366Z,86.57
2018-04-11T09:59:34.649Z,86.21
2018-04-11T10:02:06.770Z,87.21
2018-04-11T10:04:35.805Z,86.40
2018-04-11T10:07:04.091Z,86.35
2018-04-11T10:09:32.374Z,85.29
2018-04-11T10:12:00.695Z,84.33
2018-04-11T10:14:29.736Z,83.82
2018-04-11T10:16:58.030Z,83.15
2018-04-11T10:19:26.301Z,82.79
2018-04-11T10:21:54.579Z,82.36
2018-04-11T10:24:22.835Z,82.52
2018-04-11T10:26:51.120Z,81.73
2018-04-11T10:29:19.388Z,82.14
2018-04-11T10:31:47.746Z,81.66
2018-04-11T10:34:16.016Z,82.25
2018-04-11T10:36:45.066Z,81.55
2018-04-11T10:39:13.345Z,80.45
2018-04-11T10:41:41.623Z,80.59
2018-04-11T10:44:09.939Z,81.04
2018-04-11T10:46:38.217Z,81.09
2018-04-11T10:49:07.261Z,81.97
2018-04-11T10:51:35.524Z,81.50
2018-04-11T10:54:03.856Z,81.21
2018-04-11T10:56:32.258Z,82.01
2018-04-11T10:59:00.610Z,82.40
2018-04-11T11:01:28.930Z,82.12
2018-04-11T11:03:57.275Z,82.35
2018-04-11T11:06:25.607Z,82.76
2018-04-11T11:08:53.986Z,81.61
2018-04-11T11:11:22.366Z,83.34
2018-04-11T11:13:51.447Z,82.36
2018-04-11T11:16:19.764Z,82.15
2018-04-11T11:18:48.078Z,81.54
2018-04-11T11:21:16.339Z,81.14
2018-04-11T11:23:44.655Z,81.55
2018-04-11T11:26:12.930Z,82.06
2018-04-11T11:28:41.223Z,81.42
2018-04-11T11:31:09.492Z,80.77
2018-04-11T11:33:37.799Z,80.71
2018-04-11T11:36:06.067Z,79.72
2018-04-11T11:38:34.347Z,81.86
2018-04-11T11:41:02.632Z,82.04
2018-04-11T11:43:31.670Z,79.42
2018-04-11T11:46:00.019Z,78.04
2018-04-11T11:48:28.282Z,78.86
2018-04-11T11:50:57.335Z,78.05
2018-04-11T11:53:25.654Z,78.56
2018-04-11T11:55:54.704Z,78.74
2018-04-11T11:58:22.967Z,77.83
2018-04-11T12:00:51.260Z,76.87
2018-04-11T12:03:19.523Z,75.99
2018-04-11T12:05:47.803Z,76.52
2018-04-11T12:08:16.091Z,75.87
2018-04-11T12:10:44.374Z,74.70
2018-04-11T12:13:12.631Z,73.66
2018-04-11T12:15:40.915Z,73.41
2018-04-11T12:18:09.187Z,74.77
2018-04-11T12:20:37.493Z,74.87
2018-04-11T12:23:05.786Z,73.64
2018-04-11T12:25:34.836Z,75.01
2018-04-11T12:28:03.093Z,75.83
2018-04-11T12:30:31.399Z,75.35
2018-04-11T12:32:59.671Z,76.08
2018-04-11T12:35:27.948Z,76.15
2018-04-11T12:37:56.235Z,76.12
2018-04-11T12:40:24.491Z,74.04
2018-04-11T12:42:52.805Z,74.65
2018-04-11T12:45:21.063Z,74.09
2018-04-11T12:47:49.390Z,72.78
2018-04-11T12:50:17.662Z,72.75
2018-04-11T12:52:45.953Z,71.21
2018-04-11T12:55:14.206Z,70.80
2018-04-11T12:57:43.266Z,68.43
2018-04-11T13:00:11.532Z,67.92
2018-04-11T13:02:39.816Z,64.62
2018-04-11T13:05:08.138Z,63.35
2018-04-11T13:07:37.186Z,61.19
2018-04-11T13:10:05.472Z,58.44
2018-04-11T13:12:33.761Z,58.83
2018-04-11T13:15:02.046Z,56.33
2018-04-11T13:17:30.323Z,55.69
2018-04-11T13:19:59.355Z,54.77
2018-04-11T13:22:27.638Z,56.66
2018-04-11T13:24:55.900Z,55.87
2018-04-11T13:27:24.184Z,58.63
2018-04-11T13:29:52.453Z,59.41
2018-04-11T13:32:20.737Z,59.68
2018-04-11T13:34:48.995Z,58.56
2018-04-11T13:37:17.281Z,59.10
2018-04-11T13:39:45.620Z,58.79
2018-04-11T13:42:14.664Z,58.91
2018-04-11T13:44:42.938Z,59.54
2018-04-11T13:47:12.023Z,57.59
2018-04-11T13:49:40.337Z,57.50
2018-04-11T13:52:08.583Z,56.96
2018-04-11T13:54:36.901Z,55.82
2018-04-11T13:57:05.167Z,52.33
2018-04-11T13:59:33.464Z,52.39
2018-04-11T14:02:01.741Z,49.38
2018-04-11T14:04:30.030Z,45.05
2018-04-11T14:06:59.059Z,42.83
2018-04-11T14:09:27.354Z,42.17
2018-04-11T14:11:55.618Z,40.13
2018-04-11T14:14:23.926Z,39.35
2018-04-11T14:16:52.166Z,41.01
2018-04-11T14:19:20.459Z,38.60
2018-04-11T14:21:48.743Z,38.81
2018-04-11T14:24:17.023Z,37.18
2018-04-11T14:26:45.293Z,36.75
2018-04-11T14:29:13.571Z,35.13
2018-04-11T14:31:41.848Z,35.58
2018-04-11T14:34:10.128Z,36.93
2018-04-11T14:36:38.395Z,35.46
2018-04-11T14:39:06.679Z,35.88
2018-04-11T14:41:34.943Z,35.50
2018-04-11T14:44:03.230Z,34.31
2018-04-11T14:46:31.503Z,35.11
2018-04-11T14:48:59.766Z,35.31
2018-04-11T14:51:28.051Z,36.64
2018-04-11T14:53:56.316Z,36.14
2018-04-11T14:56:24.595Z,36.10
2018-04-11T14:58:52.901Z,35.40
2018-04-11T15:01:21.180Z,35.70
2018-04-11T15:03:49.447Z,36.84
2018-04-11T15:06:17.728Z,38.56
2018-04-11T15:08:45.994Z,38.16
2018-04-11T15:11:14.275Z,39.24
2018-04-11T15:13:42.552Z,38.61
2018-04-11T15:16:10.831Z,39.42
2018-04-11T15:18:39.102Z,40.41
2018-04-11T15:21:07.476Z,40.75
2018-04-11T15:23:35.735Z,41.04
2018-04-11T15:26:04.026Z,40.39
2018-04-11T15:28:32.291Z,39.95
2018-04-11T15:31:00.608Z,40.08
2018-04-11T15:33:28.876Z,39.02
2018-04-11T15:35:57.182Z,38.02
2018-04-11T15:38:25.460Z,37.45
2018-04-11T15:40:53.747Z,38.37
2018-04-11T15:43:22.008Z,37.28
2018-04-11T15:45:51.075Z,38.28
2018-04-11T15:48:19.344Z,36.69
2018-04-11T15:50:47.639Z,36.89
2018-04-11T15:53:15.916Z,36.90
2018-04-11T15:55:44.959Z,36.10
2018-04-11T15:58:13.235Z,36.28
2018-04-11T16:00:41.490Z,34.90
2018-04-11T16:03:09.783Z,34.59
2018-04-11T16:05:38.047Z,33.57
2018-04-11T16:08:06.338Z,34.92
2018-04-11T16:10:34.606Z,33.22
2018-04-11T16:15:37.406Z,34.34
2018-04-11T16:18:05.699Z,35.43
2018-04-11T16:20:33.976Z,36.05
2018-04-11T16:23:02.292Z,36.12
2018-04-11T16:25:30.591Z,36.62
2018-04-11T16:27:59.750Z,36.10
2018-04-11T16:30:28.021Z,36.20
2018-04-11T16:32:56.323Z,38.33
2018-04-11T16:35:25.353Z,38.47
2018-04-11T16:37:53.639Z,38.30
2018-04-11T16:40:21.927Z,38.52
2018-04-11T16:42:50.206Z,38.33
2018-04-11T16:45:18.472Z,37.87
2018-04-11T16:47:46.756Z,38.55
2018-04-11T16:50:15.016Z,38.91
2018-04-11T16:52:43.296Z,39.08
2018-04-11T16:55:11.557Z,42.19
2018-04-11T16:57:39.849Z,42.21
2018-04-11T17:00:08.104Z,43.65
2018-04-11T17:02:36.383Z,41.35
2018-04-11T17:05:04.671Z,41.55
2018-04-11T17:07:32.931Z,39.13
2018-04-11T17:10:01.231Z,39.12
2018-04-11T17:12:29.505Z,38.76
2018-04-11T17:14:57.799Z,39.29
2018-04-11T17:17:26.824Z,39.18
2018-04-11T17:19:55.171Z,39.03
2018-04-11T17:22:41.401Z,39.50
2018-04-11T17:25:27.591Z,40.72
2018-04-11T17:28:14.522Z,42.94
2018-04-11T17:30:57.773Z,43.47
2018-04-11T17:33:26.083Z,44.56
2018-04-11T17:35:54.453Z,45.28
2018-04-11T17:38:23.060Z,46.10
2018-04-11T17:40:52.623Z,47.66
2018-04-11T17:43:22.251Z,49.10
2018-04-11T17:45:52.103Z,50.42
2018-04-11T17:48:21.964Z,53.33
2018-04-11T17:50:51.948Z,53.82
2018-04-11T17:53:21.195Z,55.05
2018-04-11T17:55:50.414Z,56.99
2018-04-11T17:58:19.696Z,58.47
2018-04-11T18:00:49.109Z,59.68
2018-04-11T18:03:18.396Z,61.55
2018-04-11T18:05:48.510Z,62.54
2018-04-11T18:08:18.329Z,63.56
2018-04-11T18:10:48.186Z,64.07
2018-04-11T18:13:18.044Z,64.95
2018-04-11T18:15:47.466Z,65.79
2018-04-11T18:18:16.809Z,67.01
2018-04-11T18:20:46.386Z,67.91
2018-04-11T18:23:16.224Z,68.80
2018-04-11T18:25:46.811Z,69.53
2018-04-11T18:28:16.961Z,70.57
2018-04-11T18:30:47.109Z,71.32
2018-04-11T18:33:17.922Z,71.26
2018-04-11T18:35:49.573Z,71.82
2018-04-11T18:38:19.427Z,72.00
2018-04-11T18:40:50.018Z,73.09
2018-04-11T18:43:19.905Z,73.80
2018-04-11T18:45:50.112Z,75.37
2018-04-11T18:48:19.387Z,75.62
2018-04-11T18:50:49.639Z,75.84
2018-04-11T18:53:18.996Z,75.87
2018-04-11T18:55:48.834Z,76.09
2018-04-11T18:58:18.576Z,76.20
2018-04-11T19:00:49.055Z,75.76
2018-04-11T19:03:18.573Z,75.55
2018-04-11T19:05:48.987Z,75.54
2018-04-11T19:08:19.163Z,75.74
2018-04-11T19:10:48.634Z,75.93
2018-04-11T19:13:18.344Z,75.46
2018-04-11T19:15:48.134Z,76.43
2018-04-11T19:18:17.731Z,76.33
2018-04-11T19:20:48.553Z,75.81
2018-04-11T19:23:18.035Z,75.88
2018-04-11T19:25:49.259Z,76.15
2018-04-11T19:28:19.476Z,76.85
2018-04-11T19:30:49.714Z,77.51
2018-04-11T19:33:19.371Z,77.33
2018-04-11T19:35:48.777Z,77.32
2018-04-11T19:38:18.982Z,77.40
2018-04-11T19:40:49.088Z,78.88
2018-04-11T19:43:18.636Z,78.48
2018-04-11T19:45:49.308Z,78.04
2018-04-11T19:48:18.854Z,78.39
2018-04-11T19:50:49.344Z,78.62
2018-04-11T19:53:18.800Z,82.58
2018-04-11T19:55:49.386Z,81.69
2018-04-11T19:58:18.885Z,80.91
2018-04-11T20:00:49.146Z,82.67
2018-04-11T20:03:18.695Z,84.25
2018-04-11T20:05:49.964Z,83.10
2018-04-11T20:08:19.411Z,83.43
2018-04-11T20:10:49.674Z,82.68
2018-04-11T20:13:19.285Z,81.93
2018-04-11T20:15:49.583Z,81.67
2018-04-11T20:18:19.115Z,81.31
2018-04-11T20:20:48.947Z,80.31
2018-04-11T20:23:18.483Z,80.02
2018-04-11T20:25:49.749Z,80.98
2018-04-11T20:28:19.478Z,82.14
2018-04-11T20:30:49.749Z,83.34
2018-04-11T20:33:19.178Z,84.00
2018-04-11T20:35:50.654Z,85.74
2018-04-11T20:38:20.204Z,85.86
2018-04-11T20:40:49.495Z,85.38
2018-04-11T20:43:18.861Z,85.22
2018-04-11T20:45:49.276Z,84.84
2018-04-11T20:48:18.617Z,84.50
2018-04-11T20:50:49.971Z,84.80
2018-04-11T20:53:19.376Z,85.20
2018-04-11T20:55:49.286Z,85.00
2018-04-11T20:58:18.551Z,85.33
2018-04-11T21:00:47.919Z,87.49
2018-04-11T21:03:17.181Z,87.96
2018-04-11T21:05:46.501Z,87.52
2018-04-11T21:08:15.843Z,88.28
2018-04-11T21:10:45.959Z,89.04
2018-04-11T21:13:15.941Z,89.17
2018-04-11T21:15:45.161Z,88.66
2018-04-11T21:18:13.948Z,88.47
2018-04-11T21:20:42.584Z,89.59
2018-04-11T21:23:11.697Z,89.38
2018-04-11T21:25:40.105Z,89.29
2018-04-11T21:28:08.474Z,89.61
2018-04-11T21:30:36.833Z,89.70
2018-04-11T21:33:05.895Z,88.86
2018-04-11T21:35:34.157Z,88.95
2018-04-11T21:38:02.470Z,89.86
2018-04-11T21:40:30.743Z,89.95
2018-04-11T21:42:59.028Z,90.96
2018-04-11T21:45:27.292Z,90.52
2018-04-11T21:47:55.567Z,89.73
2018-04-11T21:50:23.836Z,89.63
2018-04-11T21:52:52.112Z,89.49
2018-04-11T21:55:20.383Z,89.38
2018-04-11T21:57:48.664Z,89.56
2018-04-11T22:00:16.946Z,89.91
2018-04-11T22:02:45.259Z,89.50
2018-04-11T22:05:14.287Z,89.69
2018-04-11T22:07:42.621Z,89.78
2018-04-11T22:10:10.988Z,88.97
2018-04-11T22:12:39.286Z,88.11
2018-04-11T22:15:08.385Z,89.06
2018-04-11T22:17:36.646Z,89.55
2018-04-11T22:20:04.920Z,89.48
2018-04-11T22:22:33.277Z,90.04
2018-04-11T22:25:01.544Z,89.46
2018-04-11T22:27:29.817Z,89.55
2018-04-11T22:29:58.088Z,89.54
2018-04-11T22:32:26.358Z,88.76
2018-04-11T22:34:54.731Z,88.57
2018-04-11T22:37:23.089Z,88.32
2018-04-11T22:39:51.471Z,89.55
2018-04-11T22:42:19.879Z,90.56
2018-04-11T22:44:48.210Z,91.80
2018-04-11T22:47:16.576Z,92.37
2018-04-11T22:49:45.698Z,93.16
2018-04-11T22:52:14.053Z,93.34
2018-04-11T22:54:43.162Z,93.44
2018-04-11T22:57:11.508Z,93.46
2018-04-11T22:59:39.869Z,93.59
2018-04-11T23:02:08.222Z,93.55
2018-04-11T23:04:36.584Z,94.22
2018-04-11T23:07:04.906Z,94.46
2018-04-11T23:09:33.271Z,94.45
2018-04-11T23:12:01.672Z,95.04
2018-04-11T23:14:30.047Z,95.41
2018-04-11T23:16:58.392Z,95.24
2018-04-11T23:19:26.761Z,96.72
2018-04-11T23:21:55.095Z,96.38
2018-04-11T23:24:24.229Z,96.87
2018-04-11T23:26:52.579Z,96.89
2018-04-11T23:29:21.727Z,98.15
2018-04-11T23:31:50.088Z,99.46
2018-04-11T23:34:18.396Z,98.72
2018-04-11T23:36:46.687Z,98.70
2018-04-11T23:39:14.982Z,99.68
2018-04-11T23:41:43.258Z,99.35
2018-04-11T23:44:11.540Z,99.39
2018-04-11T23:46:39.841Z,99.37
2018-04-11T23:49:08.134Z,99.96
2018-04-11T23:51:36.410Z,99.39
2018-04-11T23:54:04.675Z,99.94
2018-04-11T23:56:32.976Z,100.00
2018-04-11T23:59:01.271Z,100.00
